Time;durP1;ratioP1;P1;durP2;ratioP2;P2;SDS_P1;SDS_P2;PMS_P1;PMS_P2;Temp;Humidity;BMP_temperature;BMP_pressure;BME280_temperature;BME280_humidity;BME280_pressure;Samples;Min_cycle;Max_cycle;Signal;HPM_P1;HPM_P2
2023/09/05 00:01:59;;;;;;;6.10;4.90;;;;;;;;;;4996318;28;20395;-71
2023/09/05 00:04:25;;;;;;;5.60;4.65;;;;;;;;;;4996450;28;20535;-71
2023/09/05 00:06:52;;;;;;;6.72;4.80;;;;;;;;;;4996025;28;20061;-71
2023/09/05 00:09:18;;;;;;;5.32;4.63;;;;;;;;;;4996331;28;20121;-71
2023/09/05 00:11:47;;;;;;;6.13;4.50;;;;;;;;;;4996095;28;20054;-71
2023/09/05 00:14:15;;;;;;;6.90;5.45;;;;;;;;;;4996376;28;20043;-71
2023/09/05 00:16:41;;;;;;;7.03;5.30;;;;;;;;;;4995308;28;20053;-70
2023/09/05 00:19:07;;;;;;;5.90;5.03;;;;;;;;;;4996202;28;20038;-70
2023/09/05 00:21:33;;;;;;;6.50;4.80;;;;;;;;;;4996383;28;20164;-70
2023/09/05 00:24:18;;;;;;;6.30;5.18;;;;;;;;;;4999032;28;20088;-71
2023/09/05 00:26:46;;;;;;;5.95;5.32;;;;;;;;;;4995698;28;20042;-71
2023/09/05 00:29:12;;;;;;;8.20;5.13;;;;;;;;;;4996196;28;20465;-71
2023/09/05 00:31:40;;;;;;;6.93;5.07;;;;;;;;;;4995556;28;20038;-71
2023/09/05 00:34:06;;;;;;;6.95;5.32;;;;;;;;;;4995082;28;20042;-71
2023/09/05 00:36:32;;;;;;;8.60;5.18;;;;;;;;;;4995111;28;20052;-71
2023/09/05 00:39:05;;;;;;;6.40;5.07;;;;;;;;;;4995724;28;20034;-71
2023/09/05 00:41:31;;;;;;;7.35;5.03;;;;;;;;;;4995652;28;20074;-71
2023/09/05 00:43:59;;;;;;;8.70;5.18;;;;;;;;;;4994423;28;20136;-71
2023/09/05 00:46:25;;;;;;;6.45;5.00;;;;;;;;;;4995188;28;20046;-71
2023/09/05 00:48:52;;;;;;;9.27;5.55;;;;;;;;;;4993684;28;20050;-71
2023/09/05 00:51:21;;;;;;;9.20;5.50;;;;;;;;;;4994659;28;20121;-71
2023/09/05 00:53:47;;;;;;;7.10;5.45;;;;;;;;;;4995731;28;20046;-70
2023/09/05 00:56:12;;;;;;;7.68;5.53;;;;;;;;;;4995385;28;20038;-70
2023/09/05 00:58:38;;;;;;;10.30;6.57;;;;;;;;;;4995037;28;20042;-70
2023/09/05 01:01:04;;;;;;;7.90;5.93;;;;;;;;;;4994165;28;20050;-70
2023/09/05 01:03:30;;;;;;;6.93;5.07;;;;;;;;;;4995482;28;20038;-70
2023/09/05 01:06:01;;;;;;;8.65;6.03;;;;;;;;;;4994204;28;20167;-71
2023/09/05 01:08:30;;;;;;;8.52;6.07;;;;;;;;;;4995022;28;20053;-71
2023/09/05 01:10:59;;;;;;;8.02;5.72;;;;;;;;;;4994835;28;20046;-71
2023/09/05 01:13:31;;;;;;;8.73;6.45;;;;;;;;;;4995314;28;20046;-71
2023/09/05 01:15:57;;;;;;;6.38;5.50;;;;;;;;;;4994028;28;20077;-71
2023/09/05 01:18:23;;;;;;;9.40;5.95;;;;;;;;;;4994958;28;20069;-71
2023/09/05 01:21:01;;;;;;;8.90;5.97;;;;;;;;;;4995180;28;20072;-71
2023/09/05 01:23:31;;;;;;;6.57;5.75;;;;;;;;;;4979410;28;20109;-71
2023/09/05 01:25:57;;;;;;;7.43;5.40;;;;;;;;;;4974802;28;20043;-71
2023/09/05 01:28:23;;;;;;;8.25;6.22;;;;;;;;;;4975600;28;20038;-71
2023/09/05 01:30:49;;;;;;;7.45;6.25;;;;;;;;;;4979097;28;20096;-71
2023/09/05 01:33:16;;;;;;;7.30;6.30;;;;;;;;;;4990274;28;20073;-71
2023/09/05 01:35:42;;;;;;;9.27;6.35;;;;;;;;;;4974760;28;20070;-71
2023/09/05 01:38:08;;;;;;;10.85;6.97;;;;;;;;;;4986748;28;20096;-71
2023/09/05 01:40:34;;;;;;;8.70;6.40;;;;;;;;;;4993582;28;20070;-71
2023/09/05 01:43:00;;;;;;;8.68;6.63;;;;;;;;;;4994585;28;20506;-71
2023/09/05 01:45:26;;;;;;;10.05;6.45;;;;;;;;;;4994051;28;20041;-71
2023/09/05 01:47:52;;;;;;;9.13;6.50;;;;;;;;;;4994350;28;20038;-71
2023/09/05 01:50:19;;;;;;;7.85;6.53;;;;;;;;;;4994414;28;20415;-71
2023/09/05 01:52:45;;;;;;;8.05;6.50;;;;;;;;;;4986071;28;20118;-71
2023/09/05 01:55:11;;;;;;;7.80;6.25;;;;;;;;;;4973584;28;20169;-71
2023/09/05 01:57:37;;;;;;;8.80;7.15;;;;;;;;;;4984762;28;20050;-71
2023/09/05 02:00:03;;;;;;;9.80;6.72;;;;;;;;;;4986121;28;20123;-71
2023/09/05 02:02:29;;;;;;;8.07;6.22;;;;;;;;;;4988075;28;20556;-71
2023/09/05 02:04:55;;;;;;;10.18;7.25;;;;;;;;;;4975996;28;20046;-71
2023/09/05 02:07:21;;;;;;;9.18;6.88;;;;;;;;;;4993262;28;20049;-71
2023/09/05 02:09:47;;;;;;;8.18;6.80;;;;;;;;;;4983975;28;20050;-71
2023/09/05 02:12:14;;;;;;;12.95;6.85;;;;;;;;;;4982329;28;20122;-71
2023/09/05 02:14:45;;;;;;;10.77;6.47;;;;;;;;;;4974597;28;20122;-71
2023/09/05 02:17:16;;;;;;;8.60;6.75;;;;;;;;;;4983692;28;20050;-71
2023/09/05 02:19:42;;;;;;;9.85;6.90;;;;;;;;;;4986068;28;20118;-71
2023/09/05 02:22:08;;;;;;;8.13;6.63;;;;;;;;;;4973823;28;20632;-71
2023/09/05 02:24:34;;;;;;;9.68;6.43;;;;;;;;;;4974581;28;20129;-71
2023/09/05 02:27:01;;;;;;;7.75;6.30;;;;;;;;;;4979992;28;20048;-71
2023/09/05 02:29:28;;;;;;;8.60;6.80;;;;;;;;;;4985542;28;20120;-71
2023/09/05 02:31:54;;;;;;;10.07;6.80;;;;;;;;;;4988389;28;20109;-71
2023/09/05 02:34:20;;;;;;;8.73;6.85;;;;;;;;;;4993216;28;20065;-71
2023/09/05 02:36:46;;;;;;;8.82;6.32;;;;;;;;;;4985312;28;20046;-71
2023/09/05 02:39:12;;;;;;;9.13;6.68;;;;;;;;;;4993463;28;20123;-71
2023/09/05 02:41:39;;;;;;;10.23;6.78;;;;;;;;;;4993185;28;20092;-71
2023/09/05 02:44:05;;;;;;;10.30;7.20;;;;;;;;;;4977634;28;20046;-71
2023/09/05 02:46:31;;;;;;;9.30;7.13;;;;;;;;;;4985696;28;20073;-71
2023/09/05 02:48:57;;;;;;;8.88;6.80;;;;;;;;;;4990898;28;20093;-71
2023/09/05 02:51:23;;;;;;;9.75;7.00;;;;;;;;;;4987678;28;20045;-71
2023/09/05 02:53:49;;;;;;;8.75;7.35;;;;;;;;;;4989578;28;20046;-71
2023/09/05 02:56:16;;;;;;;8.32;6.72;;;;;;;;;;4987723;28;20082;-71
2023/09/05 02:58:42;;;;;;;9.27;7.13;;;;;;;;;;4982154;28;20169;-71
2023/09/05 03:01:12;;;;;;;11.35;7.13;;;;;;;;;;4993162;28;20069;-71
2023/09/05 03:03:39;;;;;;;10.40;7.60;;;;;;;;;;4985659;28;20078;-71
2023/09/05 03:06:08;;;;;;;9.10;7.32;;;;;;;;;;4979398;28;20050;-71
2023/09/05 03:08:36;;;;;;;9.05;7.47;;;;;;;;;;4978115;28;20046;-71
2023/09/05 03:11:02;;;;;;;10.70;7.63;;;;;;;;;;4973758;28;20086;-71
2023/09/05 03:13:28;;;;;;;12.38;7.72;;;;;;;;;;4973115;28;20077;-71
2023/09/05 03:15:54;;;;;;;10.30;7.68;;;;;;;;;;4973208;28;20039;-71
2023/09/05 03:18:20;;;;;;;10.57;7.63;;;;;;;;;;4973350;28;20132;-71
2023/09/05 03:20:46;;;;;;;9.10;7.38;;;;;;;;;;4972574;28;20500;-71
2023/09/05 03:23:12;;;;;;;9.80;7.55;;;;;;;;;;4972972;28;20066;-71
2023/09/05 03:25:39;;;;;;;11.93;7.65;;;;;;;;;;4973394;28;20047;-71
2023/09/05 03:28:05;;;;;;;10.65;7.00;;;;;;;;;;4974448;28;20096;-71
2023/09/05 03:30:31;;;;;;;10.02;7.25;;;;;;;;;;4992745;28;20035;-71
2023/09/05 03:32:57;;;;;;;11.85;7.38;;;;;;;;;;4992168;28;20472;-71
2023/09/05 03:35:23;;;;;;;10.43;7.65;;;;;;;;;;4992008;28;20042;-71
2023/09/05 03:37:49;;;;;;;9.98;7.38;;;;;;;;;;4992000;28;20054;-71
2023/09/05 03:40:15;;;;;;;9.30;7.50;;;;;;;;;;4992931;28;20451;-71
2023/09/05 03:42:43;;;;;;;7.93;6.53;;;;;;;;;;4992573;28;20092;-70
2023/09/05 03:45:09;;;;;;;8.13;6.53;;;;;;;;;;4972626;28;20039;-71
2023/09/05 03:47:35;;;;;;;9.30;7.20;;;;;;;;;;4972944;28;20405;-71
2023/09/05 03:50:01;;;;;;;10.07;7.85;;;;;;;;;;4973169;28;20046;-71
2023/09/05 03:52:27;;;;;;;9.85;7.50;;;;;;;;;;4972521;28;20046;-71
2023/09/05 03:54:53;;;;;;;9.95;7.50;;;;;;;;;;4973194;28;20046;-71
2023/09/05 03:57:19;;;;;;;9.30;7.55;;;;;;;;;;4972713;28;20093;-71
2023/09/05 03:59:45;;;;;;;10.50;8.15;;;;;;;;;;4973212;28;20042;-71
2023/09/05 04:02:11;;;;;;;10.93;7.55;;;;;;;;;;4987268;28;20049;-71
2023/09/05 04:04:37;;;;;;;10.00;7.70;;;;;;;;;;4977011;28;20035;-71
2023/09/05 04:07:03;;;;;;;12.80;7.90;;;;;;;;;;4981778;28;20049;-71
2023/09/05 04:09:29;;;;;;;9.65;7.30;;;;;;;;;;4991975;28;20127;-70
2023/09/05 04:11:55;;;;;;;11.10;8.27;;;;;;;;;;4991835;28;20504;-71
2023/09/05 04:14:21;;;;;;;9.38;7.25;;;;;;;;;;4992480;28;20038;-71
2023/09/05 04:16:47;;;;;;;10.32;7.78;;;;;;;;;;4991183;28;20092;-71
2023/09/05 04:19:13;;;;;;;12.25;8.88;;;;;;;;;;4992435;28;20030;-71
2023/09/05 04:21:39;;;;;;;8.27;7.22;;;;;;;;;;4992374;28;20042;-71
2023/09/05 04:24:06;;;;;;;10.05;7.22;;;;;;;;;;4990865;28;20042;-71
2023/09/05 04:26:33;;;;;;;10.75;8.23;;;;;;;;;;4991413;28;20050;-71
2023/09/05 04:28:59;;;;;;;11.60;8.60;;;;;;;;;;4991994;28;20451;-71
2023/09/05 04:31:25;;;;;;;10.50;8.02;;;;;;;;;;4992292;28;20042;-71
2023/09/05 04:33:51;;;;;;;11.02;8.40;;;;;;;;;;4992129;28;20053;-71
2023/09/05 04:36:17;;;;;;;10.52;7.60;;;;;;;;;;4986962;28;20039;-71
2023/09/05 04:38:44;;;;;;;11.60;7.55;;;;;;;;;;4972656;28;20050;-71
2023/09/05 04:41:10;;;;;;;10.05;8.05;;;;;;;;;;4972868;28;20035;-71
2023/09/05 04:43:36;;;;;;;11.55;8.80;;;;;;;;;;4980059;28;20049;-71
2023/09/05 04:46:03;;;;;;;10.52;8.20;;;;;;;;;;4995287;28;20057;-71
2023/09/05 04:48:29;;;;;;;11.75;8.63;;;;;;;;;;5013917;22;20033;-66
2023/09/05 04:50:57;;;;;;;10.95;8.77;;;;;;;;;;5032346;28;20498;-67
2023/09/05 04:53:23;;;;;;;12.02;9.10;;;;;;;;;;5033448;28;20499;-67
2023/09/05 04:55:51;;;;;;;11.30;8.13;;;;;;;;;;5024233;28;20049;-67
2023/09/05 04:58:17;;;;;;;10.73;8.40;;;;;;;;;;5026181;28;20479;-67
2023/09/05 05:00:43;;;;;;;9.93;7.75;;;;;;;;;;5018564;28;20125;-67
2023/09/05 05:03:10;;;;;;;9.60;7.13;;;;;;;;;;5032705;28;20461;-67
2023/09/05 05:05:36;;;;;;;9.98;7.00;;;;;;;;;;5033367;28;20063;-67
2023/09/05 05:08:02;;;;;;;11.77;8.85;;;;;;;;;;5016931;28;20040;-67
2023/09/05 05:10:30;;;;;;;10.70;7.82;;;;;;;;;;5034790;28;20124;-67
2023/09/05 05:12:56;;;;;;;10.15;8.25;;;;;;;;;;5018164;28;20487;-67
2023/09/05 05:15:22;;;;;;;10.18;7.65;;;;;;;;;;5034178;28;20047;-67
2023/09/05 05:17:48;;;;;;;9.73;6.95;;;;;;;;;;5034180;28;20140;-67
2023/09/05 05:20:14;;;;;;;8.93;7.60;;;;;;;;;;5034684;28;20037;-67
2023/09/05 05:22:40;;;;;;;10.27;7.55;;;;;;;;;;5034574;28;20049;-67
2023/09/05 05:25:07;;;;;;;10.57;8.15;;;;;;;;;;5025543;28;20503;-67
2023/09/05 05:27:33;;;;;;;11.98;9.10;;;;;;;;;;5029616;28;20049;-67
2023/09/05 05:29:59;;;;;;;12.20;8.18;;;;;;;;;;5032579;28;20502;-67
2023/09/05 05:32:25;;;;;;;11.98;8.23;;;;;;;;;;5019765;28;20052;-67
2023/09/05 05:34:52;;;;;;;10.07;8.02;;;;;;;;;;5022995;28;20091;-67
2023/09/05 05:37:18;;;;;;;12.52;8.88;;;;;;;;;;5028314;28;20048;-67
2023/09/05 05:39:44;;;;;;;11.73;8.60;;;;;;;;;;5022114;28;20044;-67
2023/09/05 05:42:10;;;;;;;10.88;7.72;;;;;;;;;;5033565;28;20116;-67
2023/09/05 05:44:36;;;;;;;11.88;8.23;;;;;;;;;;5033507;28;20487;-67
2023/09/05 05:47:03;;;;;;;9.48;8.30;;;;;;;;;;5033386;28;20052;-67
2023/09/05 05:49:29;;;;;;;10.57;8.15;;;;;;;;;;5033136;28;20490;-67
2023/09/05 05:51:58;;;;;;;12.10;7.93;;;;;;;;;;5033759;28;20510;-67
2023/09/05 05:54:24;;;;;;;14.52;9.13;;;;;;;;;;5033384;28;20514;-67
2023/09/05 05:56:51;;;;;;;12.13;8.25;;;;;;;;;;5033389;28;20045;-67
2023/09/05 05:59:17;;;;;;;12.02;8.85;;;;;;;;;;5031925;28;20399;-67
2023/09/05 06:01:43;;;;;;;12.13;8.75;;;;;;;;;;5033535;28;20037;-67
2023/09/05 06:04:12;;;;;;;11.85;8.57;;;;;;;;;;5020872;28;20042;-67
2023/09/05 06:06:39;;;;;;;11.13;8.13;;;;;;;;;;5011441;28;20046;-68
2023/09/05 06:09:05;;;;;;;12.18;9.27;;;;;;;;;;5031356;28;20050;-67
2023/09/05 06:11:31;;;;;;;11.63;8.98;;;;;;;;;;5033639;28;20045;-67
2023/09/05 06:13:57;;;;;;;15.00;8.80;;;;;;;;;;5032875;28;20085;-67
2023/09/05 06:16:23;;;;;;;12.35;8.63;;;;;;;;;;5032781;28;20445;-67
2023/09/05 06:18:49;;;;;;;10.52;8.35;;;;;;;;;;5033034;28;20120;-67
2023/09/05 06:21:15;;;;;;;10.20;8.63;;;;;;;;;;5033005;28;20033;-67
2023/09/05 06:23:41;;;;;;;11.48;8.45;;;;;;;;;;5030662;28;20094;-67
2023/09/05 06:26:07;;;;;;;11.43;8.68;;;;;;;;;;5033015;28;20702;-67
2023/09/05 06:28:34;;;;;;;10.70;8.13;;;;;;;;;;5015584;28;20049;-67
2023/09/05 06:31:00;;;;;;;10.95;8.75;;;;;;;;;;5022038;28;20092;-67
2023/09/05 06:33:26;;;;;;;13.35;8.88;;;;;;;;;;5017044;28;20052;-67
2023/09/05 06:35:52;;;;;;;11.57;9.05;;;;;;;;;;5032616;28;20052;-67
2023/09/05 06:38:21;;;;;;;14.07;8.38;;;;;;;;;;5033097;28;20037;-67
2023/09/05 06:40:47;;;;;;;9.02;7.50;;;;;;;;;;5030856;28;20116;-67
2023/09/05 06:43:13;;;;;;;17.30;8.75;;;;;;;;;;5032742;28;20029;-67
2023/09/05 06:45:40;;;;;;;11.90;8.50;;;;;;;;;;5032300;28;20501;-68
2023/09/05 06:48:06;;;;;;;11.73;7.90;;;;;;;;;;5031232;28;20077;-68
2023/09/05 06:50:32;;;;;;;10.38;8.25;;;;;;;;;;5031015;28;20079;-68
2023/09/05 06:52:58;;;;;;;12.30;8.10;;;;;;;;;;5031236;28;20041;-68
2023/09/05 06:55:24;;;;;;;11.50;8.30;;;;;;;;;;5030617;28;20037;-68
2023/09/05 06:57:50;;;;;;;10.52;7.60;;;;;;;;;;5032493;28;20046;-68
2023/09/05 07:00:16;;;;;;;12.52;7.97;;;;;;;;;;5024320;28;20035;-68
2023/09/05 07:02:42;;;;;;;11.50;7.47;;;;;;;;;;5032934;28;20390;-68
2023/09/05 07:05:08;;;;;;;10.82;7.60;;;;;;;;;;5030201;28;20120;-68
2023/09/05 07:07:34;;;;;;;10.63;7.63;;;;;;;;;;5026103;28;20084;-68
2023/09/05 07:10:00;;;;;;;8.60;7.50;;;;;;;;;;5030538;28;20073;-68
2023/09/05 07:12:26;;;;;;;11.18;7.45;;;;;;;;;;5030228;28;20459;-67
2023/09/05 07:14:52;;;;;;;8.88;7.07;;;;;;;;;;5021280;28;20038;-67
2023/09/05 07:17:18;;;;;;;9.73;6.93;;;;;;;;;;5005803;28;20096;-67
2023/09/05 07:19:45;;;;;;;9.05;7.15;;;;;;;;;;5010386;28;20069;-67
2023/09/05 07:22:11;;;;;;;8.05;6.93;;;;;;;;;;5015929;28;20041;-67
2023/09/05 07:24:37;;;;;;;10.18;6.47;;;;;;;;;;5023525;28;20041;-67
2023/09/05 07:27:04;;;;;;;8.98;7.00;;;;;;;;;;5019998;28;20042;-67
2023/09/05 07:29:31;;;;;;;9.80;7.18;;;;;;;;;;5024432;28;20062;-67
2023/09/05 07:31:57;;;;;;;10.13;6.22;;;;;;;;;;5018683;28;20406;-67
2023/09/05 07:34:23;;;;;;;10.85;5.53;;;;;;;;;;5024331;28;20124;-67
2023/09/05 07:36:49;;;;;;;7.82;5.68;;;;;;;;;;5011068;28;20077;-67
2023/09/05 07:39:15;;;;;;;9.70;6.00;;;;;;;;;;5015057;28;20119;-67
2023/09/05 07:41:41;;;;;;;7.07;5.70;;;;;;;;;;5005684;28;20042;-68
2023/09/05 07:44:07;;;;;;;8.80;5.43;;;;;;;;;;5008736;28;20480;-67
2023/09/05 07:46:33;;;;;;;7.15;5.45;;;;;;;;;;5011575;28;20042;-68
2023/09/05 07:49:00;;;;;;;6.32;5.57;;;;;;;;;;4999741;28;20047;-68
2023/09/05 07:51:26;;;;;;;6.47;5.13;;;;;;;;;;5005595;28;20048;-68
2023/09/05 07:54:00;;;;;;;6.00;4.85;;;;;;;;;;5009571;28;20112;-68
2023/09/05 07:56:26;;;;;;;6.90;5.22;;;;;;;;;;5010458;28;20499;-68
2023/09/05 07:58:52;;;;;;;6.88;5.00;;;;;;;;;;5011737;28;20045;-68
2023/09/05 08:01:19;;;;;;;6.28;4.68;;;;;;;;;;5018102;28;20034;-68
2023/09/05 08:03:47;;;;;;;5.35;4.43;;;;;;;;;;5005844;28;20046;-67
2023/09/05 08:06:13;;;;;;;5.63;4.38;;;;;;;;;;5006477;28;20034;-68
2023/09/05 08:08:39;;;;;;;7.47;4.68;;;;;;;;;;5004306;28;20084;-67
2023/09/05 08:11:05;;;;;;;5.82;4.60;;;;;;;;;;5010121;28;20454;-67
2023/09/05 08:13:31;;;;;;;5.15;4.53;;;;;;;;;;5013956;28;20083;-67
2023/09/05 08:15:57;;;;;;;7.03;4.65;;;;;;;;;;5009294;28;20043;-67
2023/09/05 08:18:24;;;;;;;6.95;4.55;;;;;;;;;;5006215;28;20052;-68
2023/09/05 08:20:50;;;;;;;5.35;3.80;;;;;;;;;;5009736;28;20043;-68
2023/09/05 08:23:16;;;;;;;5.18;4.20;;;;;;;;;;5019688;28;20091;-67
2023/09/05 08:25:42;;;;;;;5.22;3.95;;;;;;;;;;5013770;28;20485;-67
2023/09/05 08:28:09;;;;;;;5.45;3.25;;;;;;;;;;5031422;28;20044;-67
2023/09/05 08:30:35;;;;;;;7.40;3.97;;;;;;;;;;5022437;28;20115;-68
2023/09/05 08:33:02;;;;;;;5.82;3.63;;;;;;;;;;5009257;28;20038;-68
2023/09/05 08:35:28;;;;;;;7.03;3.60;;;;;;;;;;5012653;28;20051;-68
2023/09/05 08:37:55;;;;;;;6.03;3.67;;;;;;;;;;5015950;28;20117;-68
2023/09/05 08:40:22;;;;;;;4.45;3.55;;;;;;;;;;5016911;28;20052;-67
2023/09/05 08:42:50;;;;;;;5.60;3.60;;;;;;;;;;5009896;28;20050;-68
2023/09/05 08:45:19;;;;;;;5.00;3.05;;;;;;;;;;5008448;28;20366;-67
2023/09/05 08:47:45;;;;;;;5.18;3.35;;;;;;;;;;5006942;28;20209;-67
2023/09/05 08:50:11;;;;;;;4.68;3.10;;;;;;;;;;5015247;28;20058;-67
2023/09/05 08:52:41;;;;;;;3.90;2.80;;;;;;;;;;5013018;28;20412;-68
2023/09/05 08:55:08;;;;;;;4.28;2.80;;;;;;;;;;5012514;28;20041;-68
2023/09/05 08:57:36;;;;;;;4.47;2.40;;;;;;;;;;5020158;28;20422;-68
2023/09/05 09:00:04;;;;;;;4.13;2.90;;;;;;;;;;5015976;28;20066;-68
2023/09/05 09:02:30;;;;;;;2.60;2.38;;;;;;;;;;5017993;28;20045;-68
2023/09/05 09:04:56;;;;;;;3.05;2.45;;;;;;;;;;5008151;28;20046;-68
2023/09/05 09:07:27;;;;;;;4.53;2.80;;;;;;;;;;5003179;28;20073;-68
2023/09/05 09:09:53;;;;;;;3.63;3.03;;;;;;;;;;5017705;28;20049;-68
2023/09/05 09:12:26;;;;;;;4.05;2.45;;;;;;;;;;5020576;28;20092;-68
2023/09/05 09:14:53;;;;;;;4.13;3.03;;;;;;;;;;5014564;28;20099;-68
2023/09/05 09:17:18;;;;;;;11.18;2.90;;;;;;;;;;5002920;28;20045;-68
2023/09/05 09:19:44;;;;;;;4.60;2.63;;;;;;;;;;5007482;28;20034;-68
2023/09/05 09:22:11;;;;;;;3.42;2.55;;;;;;;;;;5015506;28;20061;-68
2023/09/05 09:24:40;;;;;;;3.88;2.45;;;;;;;;;;5027791;28;20052;-68
2023/09/05 09:27:06;;;;;;;5.00;2.30;;;;;;;;;;5021989;28;20045;-68
2023/09/05 09:29:33;;;;;;;3.08;2.10;;;;;;;;;;5014274;28;20044;-68
2023/09/05 09:32:04;;;;;;;4.55;2.33;;;;;;;;;;5013031;28;20052;-68
2023/09/05 09:34:30;;;;;;;;;;;;;;;;;;5013170;28;20377;-68
2023/09/05 09:36:57;;;;;;;4.68;2.70;;;;;;;;;;5008764;28;19921;-68
2023/09/05 09:39:23;;;;;;;3.00;2.20;;;;;;;;;;5014217;28;20419;-68
2023/09/05 09:41:49;;;;;;;2.22;2.03;;;;;;;;;;5006642;28;20037;-68
2023/09/05 09:44:26;;;;;;;2.10;1.90;;;;;;;;;;5013938;28;20090;-68
2023/09/05 09:46:53;;;;;;;2.60;2.13;;;;;;;;;;5022084;28;20041;-68
2023/09/05 09:49:19;;;;;;;2.38;2.00;;;;;;;;;;5032084;28;20482;-68
2023/09/05 09:51:54;;;;;;;3.17;1.98;;;;;;;;;;5017787;28;20405;-68
2023/09/05 09:54:26;;;;;;;2.83;1.98;;;;;;;;;;5014300;28;20741;-68
2023/09/05 09:56:53;;;;;;;2.65;2.10;;;;;;;;;;5011061;28;20066;-68
2023/09/05 09:59:20;;;;;;;2.85;2.00;;;;;;;;;;5010087;28;20109;-68
2023/09/05 10:01:47;;;;;;;4.03;2.00;;;;;;;;;;5019434;28;20088;-68
2023/09/05 10:04:14;;;;;;;3.28;2.00;;;;;;;;;;5021086;28;20069;-68
2023/09/05 10:06:42;;;;;;;3.15;2.30;;;;;;;;;;5006613;28;20050;-68
2023/09/05 10:09:09;;;;;;;2.58;2.10;;;;;;;;;;5012349;28;20060;-68
2023/09/05 10:11:35;;;;;;;2.17;1.73;;;;;;;;;;5013156;28;20100;-68
2023/09/05 10:14:01;;;;;;;3.00;1.90;;;;;;;;;;5023233;28;20038;-68
2023/09/05 10:16:27;;;;;;;3.63;1.65;;;;;;;;;;5014660;28;20042;-68
2023/09/05 10:18:53;;;;;;;4.20;2.10;;;;;;;;;;5010290;28;20040;-68
2023/09/05 10:21:20;;;;;;;3.72;1.88;;;;;;;;;;5007014;28;20037;-68
2023/09/05 10:23:47;;;;;;;3.88;2.05;;;;;;;;;;5013116;28;20121;-68
2023/09/05 10:26:14;;;;;;;3.17;2.10;;;;;;;;;;5013122;28;20733;-68
2023/09/05 10:28:41;;;;;;;2.70;1.98;;;;;;;;;;5016911;28;20045;-68
2023/09/05 10:31:12;;;;;;;2.63;1.77;;;;;;;;;;5009642;28;20057;-68
2023/09/05 10:33:39;;;;;;;5.28;2.08;;;;;;;;;;5005024;28;20152;-68
2023/09/05 10:36:06;;;;;;;1.92;1.65;;;;;;;;;;5009141;28;20052;-68
2023/09/05 10:38:38;;;;;;;3.30;1.60;;;;;;;;;;5015698;28;20064;-68
2023/09/05 10:41:04;;;;;;;3.88;1.83;;;;;;;;;;5009448;28;20034;-68
2023/09/05 10:43:30;;;;;;;3.25;1.70;;;;;;;;;;5010869;28;20038;-68
2023/09/05 10:45:58;;;;;;;3.78;1.85;;;;;;;;;;5013418;28;20091;-68
2023/09/05 10:48:34;;;;;;;2.40;1.40;;;;;;;;;;5036122;22;20077;-69
2023/09/05 10:51:07;;;;;;;3.80;1.80;;;;;;;;;;5000234;28;20047;-70
2023/09/05 10:53:33;;;;;;;3.22;1.85;;;;;;;;;;5000465;28;20046;-70
2023/09/05 10:56:00;;;;;;;2.38;1.67;;;;;;;;;;4997759;28;20649;-70
2023/09/05 10:58:43;;;;;;;3.60;1.90;;;;;;;;;;4987718;28;20416;-70
2023/09/05 11:01:31;;;;;;;2.05;1.52;;;;;;;;;;4984133;28;20043;-70
2023/09/05 11:04:07;;;;;;;2.53;1.63;;;;;;;;;;4979945;28;20514;-70
2023/09/05 11:06:42;;;;;;;3.70;1.58;;;;;;;;;;4982577;28;20042;-70
2023/09/05 11:09:08;;;;;;;2.42;1.30;;;;;;;;;;4993207;28;20133;-70
2023/09/05 11:11:40;;;;;;;1.35;1.20;;;;;;;;;;4992444;28;20089;-70
2023/09/05 11:14:06;;;;;;;2.30;1.80;;;;;;;;;;4983155;28;20452;-70
2023/09/05 11:16:49;;;;;;;4.72;1.63;;;;;;;;;;4980993;28;20045;-70
2023/09/05 11:19:33;;;;;;;2.65;1.10;;;;;;;;;;4990509;28;20113;-70
2023/09/05 11:22:19;;;;;;;2.92;1.23;;;;;;;;;;4983437;28;20026;-70
2023/09/05 11:24:58;;;;;;;2.20;1.10;;;;;;;;;;4985718;28;20112;-70
2023/09/05 11:27:29;;;;;;;2.15;1.30;;;;;;;;;;4989880;28;20539;-70
2023/09/05 11:29:55;;;;;;;2.17;1.30;;;;;;;;;;4992578;28;20051;-70
2023/09/05 11:32:29;;;;;;;1.15;1.05;;;;;;;;;;4991788;28;20038;-70
2023/09/05 11:34:55;;;;;;;1.30;1.02;;;;;;;;;;4992564;28;20078;-70
2023/09/05 11:37:22;;;;;;;3.22;1.30;;;;;;;;;;4990658;28;20061;-70
2023/09/05 11:39:49;;;;;;;1.95;1.50;;;;;;;;;;4986707;28;20119;-70
2023/09/05 11:42:19;;;;;;;2.78;1.35;;;;;;;;;;4991902;28;20529;-70
2023/09/05 11:44:45;;;;;;;;;;;;;;;;;;4986897;28;20038;-70
2023/09/05 11:47:12;;;;;;;1.50;1.20;;;;;;;;;;4992465;28;19925;-70
2023/09/05 11:49:38;;;;;;;2.05;1.30;;;;;;;;;;4990482;28;20403;-70
2023/09/05 11:52:04;;;;;;;2.17;1.10;;;;;;;;;;4997238;28;20042;-70
2023/09/05 11:54:31;;;;;;;2.03;1.40;;;;;;;;;;4992512;28;20100;-70
2023/09/05 11:56:58;;;;;;;1.40;1.30;;;;;;;;;;4984496;28;20130;-70
2023/09/05 11:59:24;;;;;;;1.40;1.30;;;;;;;;;;4989480;28;20038;-70
2023/09/05 12:01:51;;;;;;;4.20;1.55;;;;;;;;;;4990523;28;20057;-70
2023/09/05 12:04:17;;;;;;;2.08;1.40;;;;;;;;;;4989153;28;20049;-70
2023/09/05 12:06:47;;;;;;;3.65;1.65;;;;;;;;;;4987720;28;20038;-70
2023/09/05 12:09:13;;;;;;;2.30;1.35;;;;;;;;;;4994891;28;20560;-70
2023/09/05 12:11:40;;;;;;;2.90;1.73;;;;;;;;;;4992250;28;20080;-70
2023/09/05 12:14:06;;;;;;;1.70;1.33;;;;;;;;;;4992187;28;20050;-70
2023/09/05 12:16:32;;;;;;;1.90;1.20;;;;;;;;;;4986523;28;20049;-70
2023/09/05 12:18:59;;;;;;;1.42;1.20;;;;;;;;;;4990413;28;20046;-70
2023/09/05 12:21:26;;;;;;;3.55;1.38;;;;;;;;;;4989955;28;20039;-70
2023/09/05 12:23:52;;;;;;;2.67;1.38;;;;;;;;;;4994260;28;20640;-70
2023/09/05 12:26:19;;;;;;;2.22;1.27;;;;;;;;;;4986814;28;20038;-70
2023/09/05 12:28:57;;;;;;;2.15;1.40;;;;;;;;;;4995511;28;20110;-70
2023/09/05 12:31:23;;;;;;;2.42;1.38;;;;;;;;;;4990752;28;20420;-69
2023/09/05 12:33:49;;;;;;;2.05;1.60;;;;;;;;;;4987348;28;20121;-70
2023/09/05 12:36:15;;;;;;;2.22;1.40;;;;;;;;;;4994816;28;20045;-70
2023/09/05 12:38:41;;;;;;;3.53;1.63;;;;;;;;;;4994229;28;20034;-70
2023/09/05 12:41:08;;;;;;;1.92;1.30;;;;;;;;;;4993210;28;20043;-70
2023/09/05 12:43:34;;;;;;;3.35;1.10;;;;;;;;;;4984380;28;20176;-70
2023/09/05 12:46:00;;;;;;;1.90;1.27;;;;;;;;;;4992088;28;20138;-70
2023/09/05 12:48:25;;;;;;;2.15;1.15;;;;;;;;;;4992726;28;20042;-70
2023/09/05 12:50:51;;;;;;;2.42;1.30;;;;;;;;;;5000299;28;20042;-70
2023/09/05 12:53:18;;;;;;;2.33;1.30;;;;;;;;;;4996061;28;20500;-70
2023/09/05 12:55:45;;;;;;;2.10;1.50;;;;;;;;;;4994976;28;20113;-70
2023/09/05 12:58:11;;;;;;;2.20;1.25;;;;;;;;;;4992692;28;20412;-70
2023/09/05 13:00:37;;;;;;;1.88;1.30;;;;;;;;;;4998275;28;20034;-70
2023/09/05 13:03:05;;;;;;;2.53;1.30;;;;;;;;;;4996513;28;20427;-70
2023/09/05 13:05:32;;;;;;;1.70;1.30;;;;;;;;;;4994399;28;20150;-70
2023/09/05 13:08:01;;;;;;;2.58;1.20;;;;;;;;;;4994477;28;20061;-70
2023/09/05 13:10:27;;;;;;;1.50;1.20;;;;;;;;;;4996660;28;20053;-70
2023/09/05 13:12:54;;;;;;;2.65;1.30;;;;;;;;;;4992841;28;20166;-70
2023/09/05 13:15:20;;;;;;;2.00;1.60;;;;;;;;;;4990726;28;20629;-70
2023/09/05 13:17:46;;;;;;;3.67;1.48;;;;;;;;;;4990734;28;20081;-70
2023/09/05 13:20:18;;;;;;;2.50;1.35;;;;;;;;;;4994052;28;20158;-70
2023/09/05 13:22:50;;;;;;;3.65;1.90;;;;;;;;;;4995291;28;20049;-70
2023/09/05 13:25:19;;;;;;;1.52;1.40;;;;;;;;;;4993084;28;20823;-70
2023/09/05 13:27:46;;;;;;;2.83;1.40;;;;;;;;;;4994838;28;20065;-70
2023/09/05 13:30:12;;;;;;;2.15;1.52;;;;;;;;;;4985430;28;20042;-70
2023/09/05 13:32:38;;;;;;;1.63;1.27;;;;;;;;;;4993447;28;20250;-70
2023/09/05 13:35:05;;;;;;;1.60;1.05;;;;;;;;;;4994315;28;20055;-70
2023/09/05 13:37:31;;;;;;;2.00;1.20;;;;;;;;;;4994087;28;20042;-70
2023/09/05 13:39:57;;;;;;;2.13;1.45;;;;;;;;;;4994340;28;20053;-70
2023/09/05 13:42:23;;;;;;;1.98;1.20;;;;;;;;;;4997568;28;20056;-70
2023/09/05 13:44:49;;;;;;;2.22;1.15;;;;;;;;;;4994152;28;20117;-70
2023/09/05 13:47:15;;;;;;;1.95;1.40;;;;;;;;;;4994205;28;20505;-70
2023/09/05 13:49:41;;;;;;;2.20;1.42;;;;;;;;;;4994090;28;20049;-70
2023/09/05 13:52:06;;;;;;;2.28;1.20;;;;;;;;;;4996417;28;20050;-70
2023/09/05 13:54:32;;;;;;;2.20;1.55;;;;;;;;;;4987885;28;20500;-70
2023/09/05 13:57:02;;;;;;;4.18;1.13;;;;;;;;;;4992775;28;20053;-70
2023/09/05 13:59:30;;;;;;;2.55;1.20;;;;;;;;;;4994342;28;20188;-70
2023/09/05 14:01:56;;;;;;;1.30;1.13;;;;;;;;;;4996778;28;20057;-70
2023/09/05 14:04:22;;;;;;;2.78;1.15;;;;;;;;;;4991953;28;20128;-70
2023/09/05 14:06:48;;;;;;;2.05;1.20;;;;;;;;;;4982182;28;20481;-70
2023/09/05 14:09:15;;;;;;;3.88;1.40;;;;;;;;;;4992460;28;20121;-70
2023/09/05 14:11:41;;;;;;;3.03;1.30;;;;;;;;;;4992621;28;20104;-70
2023/09/05 14:14:07;;;;;;;3.13;1.40;;;;;;;;;;4993332;28;20054;-70
2023/09/05 14:16:33;;;;;;;4.05;1.58;;;;;;;;;;4991264;28;20050;-70
2023/09/05 14:18:59;;;;;;;1.85;1.35;;;;;;;;;;4989680;28;20093;-70
2023/09/05 14:21:25;;;;;;;2.10;1.70;;;;;;;;;;4990502;28;20034;-70
2023/09/05 14:23:51;;;;;;;3.22;1.10;;;;;;;;;;4991697;28;20121;-70
2023/09/05 14:26:17;;;;;;;2.47;1.48;;;;;;;;;;4992631;28;20044;-70
2023/09/05 14:28:46;;;;;;;1.80;1.50;;;;;;;;;;4993087;28;20388;-70
2023/09/05 14:31:12;;;;;;;3.53;1.90;;;;;;;;;;4991500;28;20074;-70
2023/09/05 14:33:38;;;;;;;1.35;1.10;;;;;;;;;;4993883;28;20077;-70
2023/09/05 14:36:04;;;;;;;1.88;1.30;;;;;;;;;;4992780;28;20507;-70
2023/09/05 14:38:30;;;;;;;2.25;1.50;;;;;;;;;;4992900;28;20078;-70
2023/09/05 14:40:58;;;;;;;4.25;1.38;;;;;;;;;;4992257;28;20042;-70